Time;durP1;ratioP1;P1;durP2;ratioP2;P2;SDS_P1;SDS_P2;PMS_P1;PMS_P2;Temp;Humidity;BMP_temperature;BMP_pressure;BME280_temperature;BME280_humidity;BME280_pressure;Samples;Min_cycle;Max_cycle;Signal;HPM_P1;HPM_P2
2022/12/19 00:01:15;;;;;;;7.45;6.75;;;;;;;0.10;100.00;101783.75;4907719;29;20111;-65
2022/12/19 00:03:44;;;;;;;7.82;7.13;;;;;;;0.12;100.00;101760.19;4886685;29;20040;-66
2022/12/19 00:06:09;;;;;;;7.53;6.82;;;;;;;0.16;100.00;101767.03;4905419;29;20036;-64
2022/12/19 00:08:35;;;;;;;7.57;6.88;;;;;;;0.21;100.00;101752.09;4892634;29;20427;-63
2022/12/19 00:11:02;;;;;;;7.45;6.75;;;;;;;0.27;100.00;101753.38;4893529;29;20035;-65
2022/12/19 00:13:29;;;;;;;7.70;6.90;;;;;;;0.35;100.00;101750.78;4912823;29;20111;-65
2022/12/19 00:15:54;;;;;;;7.32;6.63;;;;;;;0.46;100.00;101739.88;4912509;29;20035;-66
2022/12/19 00:18:20;;;;;;;7.20;6.53;;;;;;;0.50;100.00;101733.16;4901616;29;20020;-65
2022/12/19 00:20:54;;;;;;;6.97;6.38;;;;;;;0.57;100.00;101738.00;4912048;29;20086;-65
2022/12/19 00:23:19;;;;;;;7.03;6.43;;;;;;;0.63;100.00;101759.91;4904949;29;20016;-65
2022/12/19 00:25:44;;;;;;;7.40;6.70;;;;;;;0.69;100.00;101748.50;4911732;29;20553;-66
2022/12/19 00:28:09;;;;;;;7.45;6.70;;;;;;;0.73;100.00;101743.69;4898773;29;20035;-65
2022/12/19 00:30:35;;;;;;;7.43;6.72;;;;;;;0.75;100.00;101737.13;4897877;29;20467;-63
2022/12/19 00:33:00;;;;;;;7.57;6.88;;;;;;;0.78;100.00;101736.84;4884856;29;20036;-65
2022/12/19 00:35:25;;;;;;;6.65;5.97;;;;;;;0.89;100.00;101733.13;4908903;29;20083;-65
2022/12/19 00:37:51;;;;;;;7.30;6.60;;;;;;;0.98;100.00;101718.72;4895918;29;20088;-65
2022/12/19 00:40:16;;;;;;;7.30;6.63;;;;;;;0.98;100.00;101724.13;4893127;29;20561;-62
2022/12/19 00:42:41;;;;;;;6.80;6.10;;;;;;;1.09;100.00;101711.41;4893010;29;20064;-65
2022/12/19 00:45:07;;;;;;;7.18;6.50;;;;;;;1.08;100.00;101697.03;4893774;29;20062;-65
2022/12/19 00:47:33;;;;;;;7.03;6.32;;;;;;;1.06;100.00;101709.00;4896878;29;20087;-66
2022/12/19 00:49:59;;;;;;;7.15;6.55;;;;;;;1.03;100.00;101696.63;4909323;29;20024;-65
2022/12/19 00:52:24;;;;;;;7.28;6.57;;;;;;;1.05;100.00;101691.91;4892628;29;20028;-66
2022/12/19 00:54:49;;;;;;;7.13;6.43;;;;;;;1.03;100.00;101697.47;4891357;29;20594;-65
2022/12/19 00:57:14;;;;;;;7.32;6.63;;;;;;;1.04;100.00;101692.94;4892273;29;20053;-65
2022/12/19 00:59:40;;;;;;;7.32;6.63;;;;;;;1.00;100.00;101692.34;4905760;29;20459;-65
2022/12/19 01:02:05;;;;;;;7.20;6.50;;;;;;;1.00;100.00;101678.84;4901217;29;20025;-66
2022/12/19 01:04:30;;;;;;;8.10;7.30;;;;;;;1.02;100.00;101674.16;4893196;29;20048;-63
2022/12/19 01:06:56;;;;;;;7.07;6.43;;;;;;;1.08;100.00;101672.69;4890800;29;20041;-65
2022/12/19 01:09:22;;;;;;;7.32;6.63;;;;;;;1.08;100.00;101683.53;4891832;29;20388;-65
2022/12/19 01:14:32;;;;;;;6.80;6.10;;;;;;;1.17;100.00;101677.22;4893745;29;20079;-65
2022/12/19 01:16:57;;;;;;;6.53;5.93;;;;;;;1.23;100.00;101681.19;4901133;29;20115;-62
2022/12/19 01:19:25;;;;;;;7.38;6.72;;;;;;;1.23;100.00;101675.78;4894819;29;20044;-65
2022/12/19 01:21:50;;;;;;;6.75;6.15;;;;;;;1.34;100.00;101666.59;4894761;29;20032;-65
2022/12/19 01:24:15;;;;;;;6.95;6.35;;;;;;;1.36;100.00;101675.41;4904458;29;20029;-65
2022/12/19 01:26:40;;;;;;;6.43;5.82;;;;;;;1.39;100.00;101662.44;4905774;29;20036;-65
2022/12/19 01:29:06;;;;;;;6.72;6.07;;;;;;;1.37;100.00;101656.34;4896027;29;20436;-65
2022/12/19 01:31:31;;;;;;;6.38;5.78;;;;;;;1.39;100.00;101651.59;4907158;29;20041;-64
2022/12/19 01:33:58;;;;;;;6.68;6.07;;;;;;;1.33;100.00;101645.97;4895861;29;20021;-65
2022/12/19 01:36:23;;;;;;;7.10;6.40;;;;;;;1.34;100.00;101644.94;4899388;29;20024;-63
2022/12/19 01:38:49;;;;;;;6.97;6.30;;;;;;;1.32;100.00;101657.75;4899582;29;20043;-65
2022/12/19 01:41:14;;;;;;;6.35;5.75;;;;;;;1.30;100.00;101658.78;4906002;29;20471;-65
2022/12/19 01:44:11;;;;;;;7.03;6.32;;;;;;;1.40;100.00;101655.16;4892774;29;20492;-65
2022/12/19 01:46:41;;;;;;;6.97;6.28;;;;;;;1.37;100.00;101655.44;4892462;29;20051;-66
2022/12/19 01:49:16;;;;;;;7.55;6.85;;;;;;;1.38;100.00;101641.78;4900732;29;20171;-65
2022/12/19 01:51:45;;;;;;;7.00;6.40;;;;;;;1.36;100.00;101649.19;4910922;29;20039;-66
2022/12/19 01:54:16;;;;;;;7.10;6.40;;;;;;;1.28;100.00;101649.13;4895063;29;20029;-63
2022/12/19 01:56:44;;;;;;;7.18;6.55;;;;;;;1.29;100.00;101653.53;4891734;29;20041;-65
2022/12/19 01:59:18;;;;;;;7.25;6.55;;;;;;;1.24;100.00;101645.84;4906538;29;20047;-66
2022/12/19 02:01:43;;;;;;;7.13;6.47;;;;;;;1.26;100.00;101642.97;4899513;29;20118;-65
2022/12/19 02:04:11;;;;;;;7.45;6.75;;;;;;;1.27;100.00;101645.56;4900387;29;20034;-65
2022/12/19 02:06:38;;;;;;;7.07;6.45;;;;;;;1.27;100.00;101639.31;4894619;29;20032;-66
2022/12/19 02:09:03;;;;;;;7.43;6.72;;;;;;;1.27;100.00;101632.03;4911615;29;20048;-65
2022/12/19 02:11:31;;;;;;;7.95;7.22;;;;;;;1.34;100.00;101629.56;4915147;29;20457;-66
2022/12/19 02:13:56;;;;;;;7.25;6.55;;;;;;;1.31;100.00;101624.44;4901543;29;20043;-65
2022/12/19 02:16:30;;;;;;;7.20;6.55;;;;;;;1.34;100.00;101626.00;4909962;29;20032;-62
2022/12/19 02:19:24;;;;;;;7.63;6.93;;;;;;;1.28;100.00;101624.75;4896142;29;20029;-62
2022/12/19 02:22:04;;;;;;;7.72;7.03;;;;;;;1.30;100.00;101609.22;4895700;29;20039;-65
2022/12/19 02:25:01;;;;;;;6.43;5.82;;;;;;;1.35;100.00;101606.91;4894587;29;20076;-65
2022/12/19 02:27:57;;;;;;;7.25;6.55;;;;;;;1.41;100.00;101611.69;4881741;29;20029;-65
2022/12/19 02:30:48;;;;;;;7.30;6.60;;;;;;;1.40;100.00;101607.28;4891759;29;20585;-64
2022/12/19 02:33:13;;;;;;;7.03;6.35;;;;;;;1.42;100.00;101605.31;4895186;29;20037;-65
2022/12/19 02:35:56;;;;;;;7.10;6.40;;;;;;;1.44;100.00;101599.72;4894557;29;20025;-62
2022/12/19 02:38:33;;;;;;;6.75;6.15;;;;;;;1.46;100.00;101593.16;4893759;29;20296;-63
2022/12/19 02:41:20;;;;;;;7.18;6.47;;;;;;;1.43;100.00;101596.19;4914014;29;20039;-62
2022/12/19 02:43:48;;;;;;;6.82;6.22;;;;;;;1.46;100.00;101587.72;4911102;29;20040;-65
2022/12/19 02:46:15;;;;;;;7.20;6.50;;;;;;;1.49;100.00;101578.47;4905569;29;20417;-65
2022/12/19 02:48:41;;;;;;;6.88;6.28;;;;;;;1.50;100.00;101575.59;4913836;29;20034;-65
2022/12/19 02:51:06;;;;;;;7.00;6.30;;;;;;;1.58;100.00;101576.69;4915024;29;20032;-64
2022/12/19 02:53:34;;;;;;;7.00;6.30;;;;;;;1.62;100.00;101565.38;4900823;29;20148;-65
2022/12/19 02:56:02;;;;;;;7.57;6.83;;;;;;;1.67;100.00;101563.06;4894973;29;20033;-65
2022/12/19 02:58:36;;;;;;;7.22;6.57;;;;;;;1.69;100.00;101560.22;4895633;29;20491;-66
2022/12/19 03:01:13;;;;;;;7.22;6.53;;;;;;;1.71;100.00;101567.16;4894171;29;20475;-64
2022/12/19 03:03:57;;;;;;;7.25;6.55;;;;;;;1.75;100.00;101548.75;4892595;29;20040;-63
2022/12/19 03:06:37;;;;;;;7.20;6.50;;;;;;;1.89;100.00;101558.19;4886569;29;20103;-65
2022/12/19 03:09:27;;;;;;;7.05;6.35;;;;;;;1.87;100.00;101550.19;4896984;29;20131;-65
2022/12/19 03:12:02;;;;;;;7.70;7.00;;;;;;;1.94;100.00;101559.41;4894551;29;20059;-64
2022/12/19 03:14:29;;;;;;;6.45;5.85;;;;;;;2.00;100.00;101556.06;4895324;29;20480;-64
2022/12/19 03:16:54;;;;;;;7.00;6.40;;;;;;;2.01;100.00;101551.50;4892442;29;20084;-61
2022/12/19 03:19:21;;;;;;;7.15;6.45;;;;;;;2.03;100.00;101553.06;4894915;29;20036;-65
2022/12/19 03:21:48;;;;;;;7.07;6.38;;;;;;;2.08;100.00;101556.16;4912591;29;20032;-66
2022/12/19 03:24:15;;;;;;;7.20;6.50;;;;;;;2.10;100.00;101550.56;4901985;29;20388;-65
2022/12/19 03:26:48;;;;;;;6.90;6.30;;;;;;;2.14;100.00;101556.53;4913088;29;20036;-65
2022/12/19 03:29:24;;;;;;;6.90;6.30;;;;;;;2.16;100.00;101539.09;4896612;29;20067;-65
2022/12/19 03:31:50;;;;;;;6.72;6.13;;;;;;;2.23;100.00;101539.28;4885319;29;20103;-65
2022/12/19 03:34:23;;;;;;;6.47;5.88;;;;;;;2.21;100.00;101536.75;4897441;29;20123;-65
2022/12/19 03:36:54;;;;;;;6.75;6.05;;;;;;;2.28;100.00;101527.00;4907093;29;20134;-64
2022/12/19 03:39:22;;;;;;;6.35;5.72;;;;;;;2.33;100.00;101530.06;4912717;29;20036;-65
2022/12/19 03:44:35;;;;;;;6.63;5.97;;;;;;;2.39;100.00;101538.56;4907824;29;20067;-64
2022/12/19 03:47:19;;;;;;;;;;;;;;;2.41;100.00;101526.53;4913780;29;20024;-65
2022/12/19 03:49:46;;;;;;;6.00;5.50;;;;;;;2.48;100.00;101519.44;4913776;29;19915;-65
2022/12/19 03:52:32;;;;;;;6.03;5.45;;;;;;;2.52;100.00;101520.00;4912259;29;20028;-65
2022/12/19 03:55:12;;;;;;;6.30;5.70;;;;;;;2.55;100.00;101523.22;4896516;29;20040;-65
2022/12/19 03:57:53;;;;;;;6.45;5.85;;;;;;;2.62;100.00;101509.88;4891960;29;20035;-63
2022/12/19 04:00:19;;;;;;;5.97;5.38;;;;;;;2.64;100.00;101523.28;4887484;29;20055;-65
2022/12/19 04:02:48;;;;;;;6.32;5.72;;;;;;;2.67;100.00;101521.06;4897663;29;20124;-65
2022/12/19 04:05:19;;;;;;;6.25;5.65;;;;;;;2.72;100.00;101517.88;4898557;29;20491;-65
2022/12/19 04:07:46;;;;;;;6.43;5.82;;;;;;;2.77;100.00;101515.53;4892139;29;20373;-64
2022/12/19 04:10:17;;;;;;;5.97;5.38;;;;;;;2.84;100.00;101509.31;4894407;29;20044;-65
2022/12/19 04:12:56;;;;;;;5.90;5.30;;;;;;;2.90;100.00;101504.22;4893961;29;20033;-65
2022/12/19 04:15:33;;;;;;;6.00;5.40;;;;;;;2.93;100.00;101514.72;4893913;29;20088;-65
2022/12/19 04:18:02;;;;;;;6.40;5.75;;;;;;;3.03;100.00;101515.44;4892556;29;20112;-65
2022/12/19 04:20:30;;;;;;;6.00;5.40;;;;;;;3.10;100.00;101501.06;4907939;29;20044;-66
2022/12/19 04:23:12;;;;;;;6.05;5.45;;;;;;;3.15;100.00;101497.84;4909389;29;20028;-65
2022/12/19 04:25:43;;;;;;;5.43;4.93;;;;;;;3.26;100.00;101486.69;4874909;29;20037;-64
2022/12/19 04:28:13;;;;;;;4.82;4.32;;;;;;;3.45;100.00;101492.78;4874519;29;20093;-64
2022/12/19 04:30:40;;;;;;;4.90;4.30;;;;;;;3.51;100.00;101490.25;4905827;29;20044;-61
2022/12/19 04:33:05;;;;;;;4.68;4.18;;;;;;;3.70;100.00;101485.50;4907971;29;20459;-66
2022/12/19 04:35:31;;;;;;;4.70;4.30;;;;;;;3.76;100.00;101482.97;4891305;29;20100;-65
2022/12/19 04:37:56;;;;;;;4.70;4.13;;;;;;;3.88;100.00;101478.03;4889263;29;20021;-65
2022/12/19 04:40:22;;;;;;;4.40;4.00;;;;;;;3.97;100.00;101477.00;4893888;29;20036;-65
2022/12/19 04:42:47;;;;;;;5.00;4.50;;;;;;;3.99;100.00;101476.81;4893384;29;20035;-65
2022/12/19 04:45:12;;;;;;;4.43;4.03;;;;;;;4.04;100.00;101483.44;4891899;29;20028;-62
2022/12/19 04:47:37;;;;;;;4.30;3.80;;;;;;;4.09;100.00;101477.47;4893296;29;20029;-65
2022/12/19 04:50:04;;;;;;;4.40;4.00;;;;;;;4.19;100.00;101477.28;4893237;29;20052;-65
2022/12/19 04:52:29;;;;;;;3.83;3.50;;;;;;;4.24;100.00;101486.63;4892366;29;20071;-62
2022/12/19 04:54:54;;;;;;;3.88;3.47;;;;;;;4.30;100.00;101482.34;4892611;29;20079;-65
2022/12/19 04:57:20;;;;;;;3.58;3.28;;;;;;;4.40;100.00;101483.00;4893259;29;20029;-61
2022/12/19 04:59:45;;;;;;;3.65;3.35;;;;;;;4.43;100.00;101482.66;4903289;29;20036;-65
2022/12/19 05:02:10;;;;;;;3.65;3.35;;;;;;;4.48;100.00;101484.88;4893145;29;20031;-64
2022/12/19 05:04:35;;;;;;;3.50;3.20;;;;;;;4.48;100.00;101480.28;4895011;29;20103;-64
2022/12/19 05:07:01;;;;;;;3.38;3.08;;;;;;;4.56;100.00;101474.81;4897768;29;20040;-65
2022/12/19 05:09:26;;;;;;;3.10;2.90;;;;;;;4.56;100.00;101482.97;4896199;29;21031;-65
2022/12/19 05:11:51;;;;;;;3.20;3.00;;;;;;;4.63;100.00;101475.78;4903203;29;20468;-62
2022/12/19 05:14:17;;;;;;;3.47;3.17;;;;;;;4.63;100.00;101475.78;4899573;29;20032;-65
2022/12/19 05:16:42;;;;;;;3.00;2.80;;;;;;;4.72;100.00;101481.22;4903755;29;20484;-65
2022/12/19 05:19:07;;;;;;;3.17;2.88;;;;;;;4.76;100.00;101471.66;4906955;29;20123;-63
2022/12/19 05:21:32;;;;;;;2.65;2.45;;;;;;;4.84;100.00;101474.34;4911659;29;20036;-66
2022/12/19 05:23:58;;;;;;;2.80;2.60;;;;;;;4.80;100.00;101462.09;4899989;29;20041;-64
2022/12/19 05:26:23;;;;;;;2.80;2.60;;;;;;;4.84;100.00;101471.63;4892497;29;20036;-64
2022/12/19 05:28:49;;;;;;;2.85;2.65;;;;;;;4.84;100.00;101467.03;4891878;29;20039;-64
2022/12/19 05:31:18;;;;;;;2.50;2.30;;;;;;;4.85;100.00;101465.13;4891591;29;20084;-65
2022/12/19 05:33:44;;;;;;;2.63;2.42;;;;;;;4.93;100.00;101465.97;4891605;29;20034;-64
2022/12/19 05:36:11;;;;;;;2.80;2.60;;;;;;;4.97;100.00;101469.19;4890799;29;20062;-65
2022/12/19 05:38:37;;;;;;;2.65;2.47;;;;;;;4.96;100.00;101467.47;4895890;29;20032;-65
2022/12/19 05:41:07;;;;;;;2.20;2.10;;;;;;;5.00;100.00;101471.53;4914385;29;20387;-64
2022/12/19 05:43:32;;;;;;;2.30;2.10;;;;;;;5.05;100.00;101460.94;4910444;29;20041;-62
2022/12/19 05:45:58;;;;;;;2.50;2.30;;;;;;;5.11;100.00;101453.94;4898069;29;20088;-65
2022/12/19 05:48:23;;;;;;;2.42;2.10;;;;;;;5.17;100.00;101453.19;4905314;29;20043;-65
2022/12/19 05:50:49;;;;;;;2.22;2.13;;;;;;;5.16;100.00;101455.06;4913740;29;20040;-65
2022/12/19 05:53:15;;;;;;;2.17;2.08;;;;;;;5.17;100.00;101455.94;4908383;29;20113;-64
2022/12/19 05:55:40;;;;;;;2.30;2.20;;;;;;;5.19;100.00;101452.00;4896724;29;20092;-64
2022/12/19 05:58:06;;;;;;;1.98;1.88;;;;;;;5.31;100.00;101448.84;4896571;29;20028;-63
2022/12/19 06:00:31;;;;;;;2.05;1.95;;;;;;;5.32;100.00;101456.88;4895926;29;20048;-65
2022/12/19 06:02:56;;;;;;;2.15;1.95;;;;;;;5.37;100.00;101457.16;4897742;29;21190;-65
2022/12/19 06:05:21;;;;;;;1.80;1.70;;;;;;;5.37;100.00;101464.47;4894696;29;20066;-64
2022/12/19 06:07:47;;;;;;;1.85;1.75;;;;;;;5.36;100.00;101457.34;4894014;29;20056;-64
2022/12/19 06:10:12;;;;;;;1.90;1.80;;;;;;;5.37;100.00;101454.44;4896138;29;20032;-64
2022/12/19 06:12:37;;;;;;;2.00;1.90;;;;;;;5.39;100.00;101448.81;4900163;29;20039;-61
2022/12/19 06:15:03;;;;;;;1.80;1.70;;;;;;;5.41;100.00;101457.63;4895146;29;20375;-64
2022/12/19 06:17:28;;;;;;;1.80;1.70;;;;;;;5.50;100.00;101461.16;4910091;29;20028;-64
2022/12/19 06:19:53;;;;;;;1.60;1.50;;;;;;;5.51;100.00;101460.13;4904250;29;20036;-61
2022/12/19 06:22:18;;;;;;;1.63;1.52;;;;;;;5.50;100.00;101455.69;4894114;29;20041;-64
2022/12/19 06:24:44;;;;;;;1.70;1.60;;;;;;;5.52;100.00;101462.66;4895999;29;20031;-64
2022/12/19 06:27:09;;;;;;;1.70;1.60;;;;;;;5.54;100.00;101465.22;4896286;29;20044;-65
2022/12/19 06:29:34;;;;;;;1.23;1.23;;;;;;;5.54;100.00;101467.94;4895634;29;20068;-65
2022/12/19 06:31:59;;;;;;;1.70;1.60;;;;;;;5.55;100.00;101465.03;4894530;29;20037;-64
2022/12/19 06:34:25;;;;;;;1.55;1.45;;;;;;;5.61;100.00;101471.63;4898927;29;20484;-65
2022/12/19 06:36:53;;;;;;;1.20;1.20;;;;;;;5.69;100.00;101466.09;4894325;29;20032;-65
2022/12/19 06:39:18;;;;;;;1.58;1.48;;;;;;;5.72;100.00;101474.75;4896299;29;20039;-65
2022/12/19 06:44:27;;;;;;;1.35;1.30;;;;;;;5.83;100.00;101480.78;4913263;29;20046;-65
2022/12/19 06:46:53;;;;;;;1.23;1.23;;;;;;;5.84;100.00;101480.63;4900642;29;20395;-64
2022/12/19 06:49:18;;;;;;;1.30;1.20;;;;;;;5.87;100.00;101477.50;4907683;29;20040;-65
2022/12/19 06:51:44;;;;;;;1.38;1.30;;;;;;;5.97;100.00;101471.84;4899316;29;20035;-65
2022/12/19 06:54:10;;;;;;;1.20;1.20;;;;;;;5.93;100.00;101467.78;4898858;29;20115;-64
2022/12/19 06:56:37;;;;;;;1.33;1.30;;;;;;;6.01;100.00;101477.78;4914969;29;20099;-64
2022/12/19 06:59:03;;;;;;;1.10;1.10;;;;;;;6.21;100.00;101473.47;4914838;29;20036;-65
2022/12/19 07:01:58;;;;;;;1.02;1.02;;;;;;;6.20;100.00;101479.97;4902075;29;20484;-65
2022/12/19 07:04:32;;;;;;;1.10;1.10;;;;;;;6.15;100.00;101475.06;4883289;29;20021;-65
2022/12/19 07:06:59;;;;;;;1.10;1.10;;;;;;;6.09;100.00;101469.53;4893864;29;20049;-65
2022/12/19 07:09:26;;;;;;;1.10;1.10;;;;;;;6.06;100.00;101464.44;4894492;29;20581;-64
2022/12/19 07:11:51;;;;;;;1.08;1.08;;;;;;;6.11;100.00;101481.06;4893399;29;20084;-64
2022/12/19 07:14:17;;;;;;;1.10;1.10;;;;;;;6.04;100.00;101478.25;4894247;29;20037;-65
2022/12/19 07:16:43;;;;;;;1.10;1.10;;;;;;;6.05;100.00;101469.03;4893234;29;20029;-64
2022/12/19 07:19:09;;;;;;;1.00;1.00;;;;;;;6.05;100.00;101474.50;4896569;29;20060;-64
2022/12/19 07:21:35;;;;;;;1.00;1.00;;;;;;;6.04;100.00;101470.06;4901567;29;20048;-66
2022/12/19 07:24:00;;;;;;;1.00;1.00;;;;;;;6.14;100.00;101462.47;4894940;29;20087;-65
2022/12/19 07:26:26;;;;;;;0.90;0.90;;;;;;;6.12;100.00;101475.44;4895068;29;20476;-64
2022/12/19 07:28:52;;;;;;;1.05;1.05;;;;;;;6.12;100.00;101475.44;4902055;29;20078;-65
2022/12/19 07:31:17;;;;;;;0.90;0.90;;;;;;;6.22;100.00;101476.00;4903416;29;20028;-66
2022/12/19 07:33:43;;;;;;;1.00;1.00;;;;;;;6.21;100.00;101468.84;4912709;29;20098;-64
2022/12/19 07:36:08;;;;;;;0.90;0.90;;;;;;;6.16;100.00;101476.75;4907823;29;20028;-62
2022/12/19 07:38:36;;;;;;;1.00;1.00;;;;;;;6.20;100.00;101483.53;4896512;29;20037;-65
2022/12/19 07:41:01;;;;;;;1.10;1.10;;;;;;;6.23;100.00;101485.91;4903436;29;20084;-65
2022/12/19 07:43:27;;;;;;;0.98;0.98;;;;;;;6.20;100.00;101488.16;4899650;29;20071;-64
2022/12/19 07:45:54;;;;;;;0.93;0.90;;;;;;;6.21;100.00;101487.94;4903937;29;20642;-61
2022/12/19 07:48:19;;;;;;;1.00;0.90;;;;;;;6.20;100.00;101483.53;4894185;29;20484;-64
2022/12/19 07:50:45;;;;;;;0.93;0.90;;;;;;;6.24;100.00;101497.66;4894028;29;20041;-62
2022/12/19 07:53:11;;;;;;;0.90;0.90;;;;;;;6.29;100.00;101491.66;4910618;29;20032;-65
2022/12/19 07:55:36;;;;;;;0.80;0.80;;;;;;;6.33;100.00;101480.16;4913412;29;20024;-64
2022/12/19 07:58:01;;;;;;;0.85;0.85;;;;;;;6.35;100.00;101490.88;4900467;29;20047;-62
2022/12/19 08:00:27;;;;;;;0.80;0.80;;;;;;;6.32;100.00;101492.09;4893088;29;20032;-67
2022/12/19 08:02:52;;;;;;;1.02;0.90;;;;;;;6.38;100.00;101502.25;4893460;29;20039;-65
2022/12/19 08:05:17;;;;;;;0.80;0.80;;;;;;;6.37;100.00;101508.75;4894340;29;20123;-66
2022/12/19 08:07:43;;;;;;;0.80;0.80;;;;;;;6.38;100.00;101509.59;4894068;29;20053;-62
2022/12/19 08:10:10;;;;;;;0.70;0.70;;;;;;;6.42;100.00;101502.72;4903110;29;20044;-64
2022/12/19 08:12:35;;;;;;;0.80;0.80;;;;;;;6.42;100.00;101495.41;4894366;29;20123;-64
2022/12/19 08:15:00;;;;;;;0.80;0.80;;;;;;;6.45;100.00;101511.41;4893235;29;20157;-65
2022/12/19 08:17:26;;;;;;;0.80;0.80;;;;;;;6.47;100.00;101511.22;4891279;29;20472;-63
2022/12/19 08:19:51;;;;;;;0.80;0.80;;;;;;;6.55;100.00;101502.94;4891058;29;20040;-65
2022/12/19 08:22:17;;;;;;;0.70;0.70;;;;;;;6.51;100.00;101515.25;4892956;29;20039;-65
2022/12/19 08:24:42;;;;;;;0.80;0.80;;;;;;;6.53;100.00;101510.44;4892828;29;20036;-63
2022/12/19 08:27:07;;;;;;;0.73;0.73;;;;;;;6.54;100.00;101505.84;4892778;29;20036;-65
2022/12/19 08:29:33;;;;;;;0.75;0.75;;;;;;;6.62;100.00;101508.47;4894199;29;20124;-64
2022/12/19 08:31:58;;;;;;;0.60;0.60;;;;;;;6.57;100.00;101508.19;4892460;29;20043;-65
2022/12/19 08:34:23;;;;;;;0.70;0.70;;;;;;;6.63;100.00;101511.00;4893694;29;20028;-65
2022/12/19 08:36:49;;;;;;;0.65;0.65;;;;;;;6.62;100.00;101503.88;4891210;29;20040;-65
2022/12/19 08:39:14;;;;;;;0.70;0.70;;;;;;;6.65;100.00;101503.50;4893486;29;20033;-66
2022/12/19 08:41:39;;;;;;;0.60;0.60;;;;;;;6.74;100.00;101509.69;4891022;29;20092;-65
2022/12/19 08:44:04;;;;;;;0.60;0.60;;;;;;;6.70;100.00;101508.41;4893198;29;20047;-65
2022/12/19 08:46:30;;;;;;;0.75;0.75;;;;;;;6.73;100.00;101516.19;4891940;29;20043;-65
2022/12/19 08:48:55;;;;;;;0.70;0.70;;;;;;;6.76;100.00;101524.84;4893044;29;20457;-65
2022/12/19 08:51:20;;;;;;;0.77;0.77;;;;;;;6.75;100.00;101520.44;4891819;29;20373;-65
2022/12/19 08:53:46;;;;;;;0.70;0.70;;;;;;;6.81;100.00;101534.38;4892388;29;20099;-65
2022/12/19 08:56:17;;;;;;;0.70;0.70;;;;;;;6.78;100.00;101523.81;4893355;29;20024;-65
2022/12/19 08:58:43;;;;;;;0.70;0.70;;;;;;;6.80;100.00;101517.16;4892826;29;20032;-65
2022/12/19 09:01:22;;;;;;;0.70;0.70;;;;;;;6.86;100.00;101515.53;4892371;29;20034;-65
2022/12/19 09:03:48;;;;;;;0.60;0.60;;;;;;;6.81;100.00;101510.63;4893199;29;20033;-64
2022/12/19 09:06:14;;;;;;;0.70;0.70;;;;;;;6.87;100.00;101514.50;4892676;29;20078;-65
2022/12/19 09:08:41;;;;;;;0.60;0.60;;;;;;;6.94;100.00;101518.16;4888134;29;20452;-63
2022/12/19 09:11:10;;;;;;;0.60;0.60;;;;;;;6.98;100.00;101514.00;4885110;29;20024;-66
2022/12/19 09:13:37;;;;;;;0.60;0.60;;;;;;;6.97;100.00;101523.22;4895779;29;20025;-65
2022/12/19 09:16:20;;;;;;;0.60;0.60;;;;;;;7.00;100.00;101526.44;4887266;29;20036;-63
2022/12/19 09:18:57;;;;;;;0.70;0.70;;;;;;;7.07;100.00;101526.53;4886920;29;20052;-65
2022/12/19 09:21:24;;;;;;;0.65;0.65;;;;;;;7.05;100.00;101534.06;4887962;29;20051;-64
2022/12/19 09:23:53;;;;;;;0.60;0.60;;;;;;;7.08;100.00;101536.41;4890391;29;20020;-65
2022/12/19 09:26:23;;;;;;;0.70;0.70;;;;;;;7.12;100.00;101543.19;4894411;29;20552;-65
2022/12/19 09:28:49;;;;;;;0.70;0.70;;;;;;;7.14;100.00;101532.91;4891277;29;20484;-65
2022/12/19 09:31:18;;;;;;;0.50;0.50;;;;;;;7.14;100.00;101521.97;4890835;29;20048;-65
2022/12/19 09:33:45;;;;;;;0.63;0.63;;;;;;;7.18;100.00;101530.63;4886515;29;20357;-64
2022/12/19 09:36:16;;;;;;;0.70;0.70;;;;;;;7.20;100.00;101534.03;4894749;29;20369;-64
2022/12/19 09:38:42;;;;;;;0.60;0.60;;;;;;;7.23;100.00;101533.63;4889911;29;20056;-64
2022/12/19 09:41:51;;;;;;;0.50;0.50;;;;;;;7.27;100.00;101530.34;4889999;29;20053;-62
2022/12/19 09:44:34;;;;;;;0.60;0.60;;;;;;;7.22;100.00;101524.59;4892161;29;20377;-65
2022/12/19 09:47:12;;;;;;;0.60;0.60;;;;;;;7.26;100.00;101525.91;4889092;29;20037;-65
2022/12/19 09:49:41;;;;;;;0.60;0.60;;;;;;;7.26;100.00;101528.66;4892588;29;20037;-63
2022/12/19 09:52:14;;;;;;;0.60;0.60;;;;;;;7.38;100.00;101519.94;4888400;29;20020;-65
2022/12/19 09:54:54;;;;;;;0.60;0.60;;;;;;;7.37;100.00;101530.03;4889207;29;20044;-65
2022/12/19 09:57:39;;;;;;;0.60;0.60;;;;;;;7.41;100.00;101530.50;4882961;29;20054;-64
2022/12/19 10:00:07;;;;;;;0.60;0.60;;;;;;;7.49;100.00;101523.00;4893157;29;20336;-65
2022/12/19 10:02:57;;;;;;;0.60;0.60;;;;;;;7.53;100.00;101535.25;4897378;29;20408;-65
2022/12/19 10:05:33;;;;;;;0.60;0.60;;;;;;;7.58;100.00;101545.59;4889830;29;20478;-64
2022/12/19 10:08:00;;;;;;;0.60;0.60;;;;;;;7.58;100.00;101550.22;4886498;29;20100;-65
2022/12/19 10:11:05;;;;;;;0.70;0.70;;;;;;;7.65;100.00;101551.13;4887613;29;20040;-65
2022/12/19 10:13:33;;;;;;;0.60;0.60;;;;;;;7.68;100.00;101548.03;4870102;29;20307;-64
2022/12/19 10:16:29;;;;;;;0.60;0.60;;;;;;;7.82;100.00;101532.59;4890369;29;20033;-65
2022/12/19 10:19:00;;;;;;;0.50;0.50;;;;;;;7.77;100.00;101531.28;4890767;29;20139;-65
2022/12/19 10:21:48;;;;;;;0.57;0.57;;;;;;;7.84;100.00;101544.19;4887947;29;20033;-64
2022/12/19 10:24:20;;;;;;;;;;;;;;;7.89;100.00;101541.69;4889641;29;20406;-65
2022/12/19 10:26:50;;;;;;;0.52;0.52;;;;;;;7.81;100.00;101529.03;4895352;29;20046;-65
2022/12/19 10:29:42;;;;;;;0.50;0.50;;;;;;;7.86;100.00;101528.44;4895159;29;20032;-65
2022/12/19 10:32:26;;;;;;;0.60;0.60;;;;;;;7.83;100.00;101540.59;4895426;29;20181;-62
2022/12/19 10:34:52;;;;;;;0.60;0.60;;;;;;;7.80;100.00;101530.88;4894743;29;20032;-66
2022/12/19 10:37:28;;;;;;;0.50;0.50;;;;;;;7.78;100.00;101548.53;4893587;29;20172;-65
2022/12/19 10:39:59;;;;;;;0.60;0.60;;;;;;;7.76;100.00;101542.44;4894734;29;20123;-66
2022/12/19 10:42:33;;;;;;;0.50;0.50;;;;;;;7.73;100.00;101538.19;4891747;29;20037;-66
2022/12/19 10:45:04;;;;;;;0.60;0.60;;;;;;;7.74;100.00;101542.59;4892147;29;20039;-66
2022/12/19 10:47:29;;;;;;;0.40;0.40;;;;;;;7.72;100.00;101535.66;4895061;29;20361;-65
2022/12/19 10:49:54;;;;;;;0.60;0.60;;;;;;;7.67;100.00;101544.44;4894925;29;20048;-65
2022/12/19 10:52:46;;;;;;;0.60;0.60;;;;;;;7.78;100.00;101537.59;4891924;29;20124;-65
2022/12/19 10:55:33;;;;;;;0.50;0.50;;;;;;;7.67;100.00;101529.94;4894023;29;20040;-65
2022/12/19 10:58:09;;;;;;;0.52;0.52;;;;;;;7.69;100.00;101538.78;4894045;29;20123;-62
2022/12/19 11:00:35;;;;;;;0.50;0.50;;;;;;;7.67;100.00;101535.41;4895966;29;20033;-64
2022/12/19 11:03:11;;;;;;;0.60;0.60;;;;;;;7.63;100.00;101526.72;4894000;29;20035;-61
2022/12/19 11:05:50;;;;;;;0.60;0.60;;;;;;;7.62;100.00;101546.06;4895924;29;20100;-62
2022/12/19 11:08:35;;;;;;;0.60;0.60;;;;;;;7.55;100.00;101532.31;4891466;29;20051;-64
2022/12/19 11:11:03;;;;;;;0.50;0.50;;;;;;;7.56;100.00;101517.63;4908174;29;20225;-65
2022/12/19 11:13:46;;;;;;;0.60;0.60;;;;;;;7.63;100.00;101515.78;4903868;29;20135;-65
2022/12/19 11:16:21;;;;;;;0.50;0.50;;;;;;;7.60;100.00;101518.91;4894185;29;20060;-64
2022/12/19 11:18:47;;;;;;;0.60;0.60;;;;;;;7.58;100.00;101517.41;4892707;29;20025;-65
2022/12/19 11:21:19;;;;;;;0.60;0.60;;;;;;;7.65;100.00;101515.59;4891789;29;20490;-64
2022/12/19 11:24:00;;;;;;;0.50;0.50;;;;;;;7.68;100.00;101510.59;4893167;29;20441;-65
2022/12/19 11:26:39;;;;;;;0.50;0.50;;;;;;;7.63;100.00;101502.13;4893452;29;20039;-63
2022/12/19 11:29:16;;;;;;;0.60;0.60;;;;;;;7.65;100.00;101499.19;4887433;29;20049;-61
2022/12/19 11:31:44;;;;;;;0.60;0.60;;;;;;;7.69;100.00;101509.53;4893528;29;20025;-65
2022/12/19 11:34:20;;;;;;;0.60;0.60;;;;;;;7.67;100.00;101511.63;4893610;29;20035;-65
2022/12/19 11:37:06;;;;;;;0.60;0.60;;;;;;;7.70;100.00;101497.56;4890249;29;20666;-63
2022/12/19 11:40:02;;;;;;;0.60;0.60;;;;;;;7.89;100.00;101493.31;4893245;29;20412;-65
2022/12/19 11:42:30;;;;;;;0.50;0.50;;;;;;;7.84;100.00;101503.16;4876516;29;20051;-65
2022/12/19 11:45:13;;;;;;;0.60;0.60;;;;;;;7.87;100.00;101497.31;4893214;29;20028;-65
2022/12/19 11:47:41;;;;;;;0.60;0.60;;;;;;;7.84;100.00;101487.59;4892301;29;20076;-65